Time;durP1;ratioP1;P1;durP2;ratioP2;P2;SDS_P1;SDS_P2;PMS_P1;PMS_P2;Temp;Humidity;BMP_temperature;BMP_pressure;BME280_temperature;BME280_humidity;BME280_pressure;Samples;Min_cycle;Max_cycle;Signal;HPM_P1;HPM_P2
2023/10/21 00:08:16;;;;;;;8.25;2.70;;;;;;;20.14;100.00;101373.06;20982092;28;20053;-73
2023/10/21 00:18:40;;;;;;;7.28;3.33;;;;;;;20.05;100.00;101363.34;20975874;28;20049;-74
2023/10/21 00:29:03;;;;;;;11.73;4.90;;;;;;;20.32;100.00;101362.06;21018614;28;20047;-73
2023/10/21 00:39:26;;;;;;;12.85;4.85;;;;;;;20.58;100.00;101354.53;21004738;28;20048;-73
2023/10/21 00:49:49;;;;;;;9.90;4.78;;;;;;;20.73;100.00;101364.16;20983183;28;20101;-73
2023/10/21 01:00:16;;;;;;;11.00;4.60;;;;;;;20.78;100.00;101356.88;20987381;28;20441;-74
2023/10/21 01:10:38;;;;;;;8.50;3.53;;;;;;;20.77;100.00;101363.16;21003746;28;20080;-74
2023/10/21 01:21:03;;;;;;;6.32;3.30;;;;;;;20.75;100.00;101374.81;21005881;28;20052;-74
2023/10/21 01:31:27;;;;;;;9.27;4.40;;;;;;;20.76;100.00;101373.91;20999111;28;20048;-74
2023/10/21 01:41:49;;;;;;;8.07;5.03;;;;;;;20.75;100.00;101374.81;20999654;28;20101;-73
2023/10/21 01:52:13;;;;;;;9.40;5.65;;;;;;;20.73;100.00;101376.66;21010824;28;20094;-73
2023/10/21 02:02:36;;;;;;;10.55;4.82;;;;;;;20.71;100.00;101386.53;21007137;28;20048;-73
2023/10/21 02:13:00;;;;;;;9.65;5.13;;;;;;;20.62;100.00;101387.56;20975672;28;20106;-74
2023/10/21 02:23:23;;;;;;;11.32;5.55;;;;;;;20.53;100.00;101388.59;20994186;28;20160;-74
2023/10/21 02:33:48;;;;;;;8.82;5.28;;;;;;;20.42;100.00;101390.53;20987200;28;20056;-73
2023/10/21 02:44:10;;;;;;;11.68;5.82;;;;;;;20.30;100.00;101390.69;20978371;28;20499;-74
2023/10/21 02:54:34;;;;;;;11.45;5.13;;;;;;;20.34;100.00;101396.94;20972931;28;20143;-74
2023/10/21 03:04:58;;;;;;;10.50;5.70;;;;;;;20.42;100.00;101403.94;20973756;28;20076;-74
2023/10/21 03:15:24;;;;;;;8.13;4.70;;;;;;;20.47;100.00;101391.38;20989918;28;20123;-73
2023/10/21 03:25:55;;;;;;;8.18;4.82;;;;;;;20.51;100.00;101393.09;20963137;28;20058;-73
2023/10/21 03:36:21;;;;;;;8.68;5.60;;;;;;;20.48;100.00;101393.13;20992054;28;20095;-74
2023/10/21 03:46:43;;;;;;;9.35;5.28;;;;;;;20.47;100.00;101396.75;20986933;28;20044;-73
2023/10/21 03:57:08;;;;;;;10.27;5.68;;;;;;;20.45;100.00;101398.56;20956134;28;20051;-74
2023/10/21 04:07:30;;;;;;;8.05;5.18;;;;;;;20.43;100.00;101399.47;20994017;28;20849;-73
2023/10/21 04:17:54;;;;;;;11.13;5.63;;;;;;;20.41;100.00;101391.47;20973320;28;20492;-73
2023/10/21 04:28:17;;;;;;;7.15;4.40;;;;;;;20.42;100.00;101390.53;20974754;28;20060;-74
2023/10/21 04:38:41;;;;;;;8.15;4.90;;;;;;;20.49;100.00;101400.28;20999098;28;20044;-74
2023/10/21 04:49:04;;;;;;;7.15;4.00;;;;;;;20.54;100.00;101394.88;21015786;28;20040;-74
2023/10/21 04:59:27;;;;;;;7.13;4.45;;;;;;;20.70;100.00;101399.06;21003550;28;20078;-73
2023/10/21 05:09:51;;;;;;;11.52;4.85;;;;;;;20.86;100.00;101414.03;20995019;28;20052;-74
2023/10/21 05:20:15;;;;;;;7.43;3.75;;;;;;;21.37;100.00;101423.00;20931755;28;20388;-73
2023/10/21 05:30:39;;;;;;;8.98;3.47;;;;;;;21.89;100.00;101424.69;21006327;28;20052;-72
2023/10/21 05:41:03;;;;;;;11.40;3.28;;;;;;;22.35;100.00;101419.25;20909527;28;20044;-74
2023/10/21 05:51:27;;;;;;;4.32;2.53;;;;;;;22.83;100.00;101425.34;20902533;28;20053;-73
2023/10/21 06:01:51;;;;;;;8.75;3.45;;;;;;;23.24;100.00;101412.59;20882634;28;20045;-73
2023/10/21 06:12:13;;;;;;;8.60;3.28;;;;;;;23.66;100.00;101421.38;20893816;28;20056;-73
2023/10/21 06:22:37;;;;;;;7.15;3.08;;;;;;;24.04;100.00;101423.88;20893717;28;20049;-73
2023/10/21 06:33:00;;;;;;;7.63;3.13;;;;;;;24.36;100.00;101428.31;20927733;28;20055;-74
2023/10/21 06:43:24;;;;;;;7.97;2.80;;;;;;;24.75;100.00;101437.00;20952033;28;20041;-73
2023/10/21 06:53:49;;;;;;;7.32;3.08;;;;;;;25.15;100.00;101442.00;20963708;28;20114;-73
2023/10/21 07:04:14;;;;;;;13.50;3.08;;;;;;;25.51;100.00;101447.09;21006850;28;20048;-74
2023/10/21 07:14:36;;;;;;;6.88;2.20;;;;;;;25.77;100.00;101457.91;20985663;28;20040;-74
2023/10/21 07:25:00;;;;;;;5.53;2.20;;;;;;;26.11;100.00;101460.25;20986757;28;20102;-75
2023/10/21 07:35:23;;;;;;;8.05;2.15;;;;;;;26.43;100.00;101450.91;20943197;28;20098;-74
2023/10/21 07:45:47;;;;;;;6.03;2.15;;;;;;;26.75;100.00;101449.63;20917620;28;20146;-74
2023/10/21 07:56:09;;;;;;;5.28;2.22;;;;;;;26.88;100.00;101449.06;20942050;28;20044;-74
2023/10/21 08:06:34;;;;;;;8.88;2.35;;;;;;;27.14;100.00;101455.28;20973248;28;20497;-72
2023/10/21 08:16:57;;;;;;;5.07;2.08;;;;;;;27.33;100.00;101429.13;20899048;28;20083;-74
2023/10/21 08:27:21;;;;;;;5.60;1.83;;;;;;;27.66;100.00;101443.97;20916892;28;20052;-74
2023/10/21 08:37:43;;;;;;;5.32;1.58;;;;;;;27.86;99.50;101425.91;20988474;28;20041;-73
2023/10/21 08:48:11;;;;;;;4.13;1.80;;;;;;;28.06;96.70;101428.59;21009430;28;20075;-73
2023/10/21 08:58:34;;;;;;;5.28;1.80;;;;;;;28.37;90.32;101430.78;20964115;28;20055;-73
2023/10/21 09:08:58;;;;;;;6.22;1.88;;;;;;;28.67;86.92;101423.88;20958541;28;20076;-73
2023/10/21 09:19:26;;;;;;;5.90;1.85;;;;;;;28.80;79.97;101426.91;20847643;28;20512;-73
2023/10/21 09:29:51;;;;;;;5.20;1.50;;;;;;;28.86;76.33;101415.72;20881677;28;20516;-74
2023/10/21 09:40:14;;;;;;;6.00;2.10;;;;;;;29.07;73.10;101417.38;20847483;28;20045;-74
2023/10/21 09:50:38;;;;;;;4.60;1.40;;;;;;;29.23;71.38;101406.56;20985018;28;20048;-73
2023/10/21 10:01:05;;;;;;;5.57;1.75;;;;;;;29.39;69.09;101395.81;20944810;28;20456;-73
2023/10/21 10:11:29;;;;;;;5.07;1.60;;;;;;;29.26;71.81;101382.81;20944373;28;20413;-73
2023/10/21 10:21:52;;;;;;;3.95;1.40;;;;;;;29.28;70.23;101380.00;20863252;28;20112;-73
2023/10/21 10:32:20;;;;;;;7.35;1.63;;;;;;;29.14;71.44;101369.84;20901721;28;20059;-73
2023/10/21 10:42:44;;;;;;;5.35;1.73;;;;;;;29.13;72.54;101357.22;20885002;28;20041;-73
2023/10/21 10:53:27;;;;;;;5.70;1.95;;;;;;;29.09;75.54;101347.44;20873504;28;20049;-73
2023/10/21 11:03:57;;;;;;;5.75;1.98;;;;;;;29.10;78.93;101338.31;20888837;28;20115;-72
2023/10/21 11:14:24;;;;;;;5.00;1.90;;;;;;;29.05;74.05;101329.53;20883398;28;20099;-73
2023/10/21 11:24:47;;;;;;;6.50;2.00;;;;;;;28.88;72.63;101314.06;20898507;28;20060;-73
2023/10/21 11:35:12;;;;;;;5.00;2.15;;;;;;;28.66;76.42;101307.06;20880432;28;20040;-73
2023/10/21 11:45:35;;;;;;;4.05;2.08;;;;;;;28.45;80.09;101317.19;20878300;28;20049;-73
2023/10/21 12:28:33;;;;;;;7.05;2.20;;;;;;;27.99;90.09;101296.78;20891280;28;20413;-74
2023/10/21 12:49:38;;;;;;;8.60;2.58;;;;;;;27.81;94.56;101301.28;20876525;28;20448;-74
2023/10/21 13:00:03;;;;;;;6.43;2.25;;;;;;;27.67;96.60;101304.63;20891881;28;20057;-74
2023/10/21 13:10:27;;;;;;;4.22;2.03;;;;;;;27.51;98.74;101299.94;20893866;28;20045;-74
2023/10/21 13:20:52;;;;;;;6.90;2.50;;;;;;;27.33;100.00;101305.25;20998662;28;20044;-73
2023/10/21 13:31:14;;;;;;;6.88;2.72;;;;;;;27.13;100.00;101280.88;21006162;28;20052;-74
2023/10/21 13:41:39;;;;;;;6.93;2.55;;;;;;;27.02;100.00;101282.31;20836187;28;20143;-73
2023/10/21 13:52:01;;;;;;;6.47;2.35;;;;;;;26.86;100.00;101290.19;20944505;28;20102;-74
2023/10/21 14:02:25;;;;;;;6.82;2.65;;;;;;;26.61;100.00;101279.50;20941786;28;20118;-73
2023/10/21 14:12:48;;;;;;;7.03;2.85;;;;;;;26.38;100.00;101276.91;20995763;28;20052;-74
2023/10/21 14:23:14;;;;;;;7.93;3.40;;;;;;;26.19;100.00;101279.44;20980431;28;20545;-73
2023/10/21 14:33:37;;;;;;;7.95;2.63;;;;;;;26.00;100.00;101284.72;20989991;28;20485;-73
2023/10/21 14:44:01;;;;;;;6.38;3.20;;;;;;;25.80;100.00;101296.31;20926800;28;20049;-74
2023/10/21 14:54:25;;;;;;;8.48;3.17;;;;;;;25.63;100.00;101311.44;20925242;28;20075;-74
2023/10/21 15:04:50;;;;;;;7.18;3.13;;;;;;;25.48;100.00;101309.28;20945508;28;20068;-74
2023/10/21 15:15:14;;;;;;;6.60;3.22;;;;;;;25.27;100.00;101324.47;20927971;28;20045;-74
2023/10/21 15:25:38;;;;;;;5.85;3.20;;;;;;;25.09;100.00;101331.41;20925034;28;20502;-74
2023/10/21 15:36:00;;;;;;;8.23;3.80;;;;;;;24.90;100.00;101346.50;20993343;28;20060;-74
2023/10/21 15:46:24;;;;;;;10.52;4.00;;;;;;;24.72;100.00;101366.88;21006657;28;20086;-74
2023/10/21 15:56:47;;;;;;;7.47;3.65;;;;;;;24.56;100.00;101382.69;20952175;28;20057;-73
2023/10/21 16:07:12;;;;;;;7.93;4.00;;;;;;;24.39;100.00;101385.06;20929623;28;20587;-74
2023/10/21 16:17:34;;;;;;;8.30;3.83;;;;;;;24.22;100.00;101399.06;20944333;28;20045;-74
2023/10/21 16:27:59;;;;;;;11.27;4.28;;;;;;;24.07;100.00;101413.00;20987565;28;20045;-73
2023/10/21 16:38:24;;;;;;;9.50;4.00;;;;;;;23.96;100.00;101416.94;20957861;28;20140;-74
2023/10/21 16:48:49;;;;;;;12.50;4.70;;;;;;;23.86;100.00;101423.53;20915396;28;20500;-73
2023/10/21 16:59:11;;;;;;;8.63;3.88;;;;;;;23.75;100.00;101431.94;20983913;28;20041;-74
2023/10/21 17:09:36;;;;;;;8.65;3.70;;;;;;;23.63;100.00;101426.88;20979275;28;20134;-74
2023/10/21 17:19:58;;;;;;;7.07;4.07;;;;;;;23.49;100.00;101431.75;20891109;28;20143;-73
2023/10/21 17:30:22;;;;;;;9.80;4.57;;;;;;;23.38;100.00;101434.69;20874709;28;20239;-71
2023/10/21 17:40:46;;;;;;;9.93;5.13;;;;;;;23.26;100.00;101432.31;20886330;28;20049;-73
2023/10/21 17:51:10;;;;;;;9.77;4.30;;;;;;;23.13;100.00;101437.13;20882855;28;20662;-72
2023/10/21 18:01:33;;;;;;;10.85;4.57;;;;;;;23.03;100.00;101447.28;20885155;28;20049;-73
2023/10/21 18:11:57;;;;;;;7.05;4.38;;;;;;;22.94;100.00;101444.81;20805603;28;20103;-72
2023/10/21 18:22:20;;;;;;;9.25;4.10;;;;;;;22.88;100.00;101452.13;20856473;28;20053;-73
2023/10/21 18:32:44;;;;;;;8.55;4.32;;;;;;;22.81;100.00;101447.81;20860283;28;20452;-73
2023/10/21 18:43:06;;;;;;;7.18;3.65;;;;;;;22.73;100.00;101463.25;20880414;28;20056;-75
2023/10/21 18:53:31;;;;;;;6.32;4.13;;;;;;;22.64;100.00;101458.97;20941833;28;20044;-74
2023/10/21 19:03:53;;;;;;;15.02;5.05;;;;;;;22.59;100.00;101460.84;20938501;28;20053;-76
2023/10/21 19:14:19;;;;;;;8.02;3.72;;;;;;;22.56;100.00;101471.72;20947101;28;20056;-74
2023/10/21 19:24:43;;;;;;;4.43;2.72;;;;;;;22.42;100.00;101466.63;20983682;28;20396;-75
2023/10/21 19:35:09;;;;;;;5.82;3.33;;;;;;;22.36;100.00;101479.31;20950819;28;20694;-75
2023/10/21 19:45:31;;;;;;;7.70;3.90;;;;;;;22.35;100.00;101477.56;20911105;28;20079;-75
2023/10/21 19:55:56;;;;;;;8.15;3.85;;;;;;;22.34;100.00;101479.34;20956968;28;20078;-74
2023/10/21 20:06:18;;;;;;;7.03;3.53;;;;;;;22.31;100.00;101471.38;20974928;28;20051;-75
2023/10/21 20:16:42;;;;;;;5.38;2.88;;;;;;;22.23;100.00;101470.63;21011920;28;20065;-75
2023/10/21 20:27:05;;;;;;;4.78;3.10;;;;;;;22.13;100.00;101480.69;20989626;28;20094;-75
2023/10/21 20:37:31;;;;;;;6.30;2.88;;;;;;;22.05;100.00;101484.47;20980488;28;20048;-75
2023/10/21 20:47:53;;;;;;;6.97;3.70;;;;;;;21.97;100.00;101492.69;21005205;28;20080;-75
2023/10/21 20:58:17;;;;;;;9.57;4.28;;;;;;;21.97;100.00;101479.25;20975353;28;20045;-76
2023/10/21 21:08:39;;;;;;;6.50;3.40;;;;;;;21.98;100.00;101472.06;20996412;28;20644;-76
2023/10/21 21:19:04;;;;;;;10.90;3.45;;;;;;;22.00;100.00;101463.03;20959928;28;20044;-76
2023/10/21 21:29:26;;;;;;;7.93;3.95;;;;;;;22.05;100.00;101426.19;20985034;28;20495;-76
2023/10/21 21:39:56;;;;;;;9.05;2.75;;;;;;;22.06;100.00;101382.22;20953625;28;20094;-75
2023/10/21 21:50:19;;;;;;;6.60;2.85;;;;;;;22.05;100.00;101406.47;20946598;28;20048;-75
2023/10/21 22:00:46;;;;;;;7.97;3.28;;;;;;;21.50;100.00;101422.78;20982198;28;20044;-75
2023/10/21 22:11:09;;;;;;;8.97;3.60;;;;;;;21.54;100.00;101432.53;21009628;28;20560;-76
2023/10/21 22:21:35;;;;;;;6.80;3.40;;;;;;;21.64;100.00;101423.41;20929692;28;20806;-75
2023/10/21 22:31:58;;;;;;;8.80;4.30;;;;;;;21.57;100.00;101419.94;20964138;28;20137;-75
2023/10/21 22:42:23;;;;;;;7.93;3.63;;;;;;;21.45;100.00;101415.69;20989993;28;20060;-75
2023/10/21 22:52:45;;;;;;;7.45;3.63;;;;;;;21.49;100.00;101397.72;20932207;28;20048;-75
2023/10/21 23:03:10;;;;;;;7.13;3.55;;;;;;;21.52;100.00;101386.91;21007942;28;20056;-75
2023/10/21 23:13:32;;;;;;;8.23;3.50;;;;;;;21.54;100.00;101411.03;20969401;28;20049;-75
2023/10/21 23:23:58;;;;;;;8.27;3.65;;;;;;;21.58;100.00;101431.59;20977269;28;20053;-76
2023/10/21 23:34:21;;;;;;;9.15;3.88;;;;;;;21.50;100.00;101452.34;20974810;28;20485;-76
2023/10/21 23:44:45;;;;;;;9.20;4.60;;;;;;;21.47;100.00;101434.47;21002731;28;20048;-76
2023/10/21 23:55:09;;;;;;;8.40;3.83;;;;;;;21.59;100.00;101442.31;21006457;28;20428;-75
